Accueil
METAR-TAF:

METAR-TAF

Aéroports :

Aéroport international de Chengdu-Shuangliu

Chengdu, Chine

latitude: 30-40N, longitude: 104-01E, altitude: 508 m

Observation

Le bulletin a été fait il y a 25 minutes, à 01:00 UTC
Vent 2 kt de direction variable
Température 15°C
Humidité 88%
Pression 1017 hPa
Visibilité: 2400 m
Nuages épars à une hauteur de 3000 ft
brume

METAR: ZUUU 120100Z VRB01MPS 2400 BR SCT030 15/13 Q1017 BECMG TL0230 3000

Heure: 09:25 (01:25 UTC)

Prévision

Le bulletin a été fait il y a 5 heures et 21 minutes, à 20:04 UTC
Prévision valable du 12 à 00 UTC au 12 à 24 UTC
Vent 6 kt de nord/nord-est
Visibilité: 3500 m
Nuages épars à une hauteur de 3000 ft
brume
Evoluant progressivement
du 12 à 21 UTC au 12 à 22 UTC
Visibilité: 2500 m
Temporairement
du 12 à 18 UTC au 12 à 24 UTC
pluie faible

TAF: ZUUU 112004Z 1200/1224 02003MPS 3500 BR SCT030 TX16/1207Z TN09/1222Z BECMG 1221/1222 2500 TEMPO 1218/1224 -RA

Observations et prévisions météorologiques de plus de 4000 aéroports (messages METAR et TAF).

Les stations disponibles sont représentées par des disques jaunes et rouges sur la carte.

Passer la souris dessus pour voir le nom de la station.

Cliquer dessus pour voir les observations et prévisions météorologiques.

Pour changer de carte: cliquez sur les boutons verts avec une croix noire pour zoomer, sur le bouton vert avec un tiret pour effectuer un zoom arrière, ou sur les flèches vertes pour les cartes adjacentes.


METAR-TAF: